sensor_id;sensor_type;location;lat;lon;timestamp;P1;durP1;ratioP1;P2;durP2;ratioP2
56267;SDS011;42175;46.930;9.532;2023-02-27T00:00:47;4.75;;;2.60;;
56267;SDS011;42175;46.930;9.532;2023-02-27T00:03:13;5.78;;;2.60;;
56267;SDS011;42175;46.930;9.532;2023-02-27T00:05:40;5.95;;;2.63;;
56267;SDS011;42175;46.930;9.532;2023-02-27T00:08:06;7.20;;;2.60;;
56267;SDS011;42175;46.930;9.532;2023-02-27T00:10:32;7.68;;;2.67;;
56267;SDS011;42175;46.930;9.532;2023-02-27T00:12:58;7.05;;;2.60;;
56267;SDS011;42175;46.930;9.532;2023-02-27T00:15:24;7.38;;;3.17;;
56267;SDS011;42175;46.930;9.532;2023-02-27T00:17:50;4.32;;;2.30;;
56267;SDS011;42175;46.930;9.532;2023-02-27T00:20:16;6.28;;;2.80;;
56267;SDS011;42175;46.930;9.532;2023-02-27T00:22:43;5.78;;;2.47;;
56267;SDS011;42175;46.930;9.532;2023-02-27T00:25:10;6.70;;;3.08;;
56267;SDS011;42175;46.930;9.532;2023-02-27T00:27:37;3.95;;;2.50;;
56267;SDS011;42175;46.930;9.532;2023-02-27T00:30:07;5.55;;;2.95;;
56267;SDS011;42175;46.930;9.532;2023-02-27T00:32:34;4.72;;;2.95;;
56267;SDS011;42175;46.930;9.532;2023-02-27T00:35:02;6.03;;;2.72;;
56267;SDS011;42175;46.930;9.532;2023-02-27T00:37:28;3.75;;;2.38;;
56267;SDS011;42175;46.930;9.532;2023-02-27T00:39:54;4.75;;;2.47;;
56267;SDS011;42175;46.930;9.532;2023-02-27T00:42:20;3.60;;;2.40;;
56267;SDS011;42175;46.930;9.532;2023-02-27T00:44:46;4.10;;;2.20;;
56267;SDS011;42175;46.930;9.532;2023-02-27T00:47:12;5.22;;;2.45;;
56267;SDS011;42175;46.930;9.532;2023-02-27T00:49:37;7.80;;;2.40;;
56267;SDS011;42175;46.930;9.532;2023-02-27T00:52:03;7.97;;;2.58;;
56267;SDS011;42175;46.930;9.532;2023-02-27T00:54:29;5.82;;;2.67;;
56267;SDS011;42175;46.930;9.532;2023-02-27T00:56:55;4.30;;;2.22;;
56267;SDS011;42175;46.930;9.532;2023-02-27T00:59:21;4.03;;;2.15;;
56267;SDS011;42175;46.930;9.532;2023-02-27T01:01:47;4.95;;;2.83;;
56267;SDS011;42175;46.930;9.532;2023-02-27T01:04:12;4.50;;;2.35;;
56267;SDS011;42175;46.930;9.532;2023-02-27T01:06:38;4.45;;;2.22;;
56267;SDS011;42175;46.930;9.532;2023-02-27T01:09:04;4.05;;;2.20;;
56267;SDS011;42175;46.930;9.532;2023-02-27T01:11:30;5.25;;;2.33;;
56267;SDS011;42175;46.930;9.532;2023-02-27T01:13:55;5.50;;;2.10;;
56267;SDS011;42175;46.930;9.532;2023-02-27T01:16:21;4.95;;;2.40;;
56267;SDS011;42175;46.930;9.532;2023-02-27T01:18:47;4.43;;;2.50;;
56267;SDS011;42175;46.930;9.532;2023-02-27T01:21:13;4.88;;;1.85;;
56267;SDS011;42175;46.930;9.532;2023-02-27T01:23:39;5.90;;;2.28;;
56267;SDS011;42175;46.930;9.532;2023-02-27T01:26:05;7.63;;;2.50;;
56267;SDS011;42175;46.930;9.532;2023-02-27T01:28:31;3.75;;;2.35;;
56267;SDS011;42175;46.930;9.532;2023-02-27T01:30:56;3.38;;;2.03;;
56267;SDS011;42175;46.930;9.532;2023-02-27T01:33:22;6.28;;;2.00;;
56267;SDS011;42175;46.930;9.532;2023-02-27T01:35:48;4.50;;;2.17;;
56267;SDS011;42175;46.930;9.532;2023-02-27T01:38:13;3.65;;;2.30;;
56267;SDS011;42175;46.930;9.532;2023-02-27T01:40:39;4.80;;;2.40;;
56267;SDS011;42175;46.930;9.532;2023-02-27T01:43:08;5.22;;;2.05;;
56267;SDS011;42175;46.930;9.532;2023-02-27T01:45:39;4.75;;;2.33;;
56267;SDS011;42175;46.930;9.532;2023-02-27T01:48:49;6.75;;;1.90;;
56267;SDS011;42175;46.930;9.532;2023-02-27T01:50:59;4.63;;;2.17;;
56267;SDS011;42175;46.930;9.532;2023-02-27T01:53:33;3.90;;;2.53;;
56267;SDS011;42175;46.930;9.532;2023-02-27T01:56:02;4.75;;;2.53;;
56267;SDS011;42175;46.930;9.532;2023-02-27T01:58:36;3.30;;;2.00;;
56267;SDS011;42175;46.930;9.532;2023-02-27T02:01:02;3.75;;;1.98;;
56267;SDS011;42175;46.930;9.532;2023-02-27T02:03:36;3.42;;;1.92;;
56267;SDS011;42175;46.930;9.532;2023-02-27T02:06:04;6.15;;;1.90;;
56267;SDS011;42175;46.930;9.532;2023-02-27T02:08:33;3.38;;;1.85;;
56267;SDS011;42175;46.930;9.532;2023-02-27T02:11:02;2.80;;;1.83;;
56267;SDS011;42175;46.930;9.532;2023-02-27T02:13:29;4.15;;;1.85;;
56267;SDS011;42175;46.930;9.532;2023-02-27T02:39:11;4.70;;;2.53;;
56267;SDS011;42175;46.930;9.532;2023-02-27T02:47:15;3.85;;;1.88;;
56267;SDS011;42175;46.930;9.532;2023-02-27T02:55:09;3.17;;;1.70;;
56267;SDS011;42175;46.930;9.532;2023-02-27T02:58:00;3.05;;;1.80;;
56267;SDS011;42175;46.930;9.532;2023-02-27T03:00:40;4.25;;;1.70;;
56267;SDS011;42175;46.930;9.532;2023-02-27T03:03:13;2.90;;;1.88;;
56267;SDS011;42175;46.930;9.532;2023-02-27T03:05:50;3.75;;;2.45;;
56267;SDS011;42175;46.930;9.532;2023-02-27T03:08:27;3.35;;;1.75;;
56267;SDS011;42175;46.930;9.532;2023-02-27T03:11:00;3.75;;;1.80;;
56267;SDS011;42175;46.930;9.532;2023-02-27T03:13:33;2.67;;;1.60;;
56267;SDS011;42175;46.930;9.532;2023-02-27T03:19:02;3.20;;;1.85;;
56267;SDS011;42175;46.930;9.532;2023-02-27T03:21:55;3.35;;;1.98;;
56267;SDS011;42175;46.930;9.532;2023-02-27T03:24:38;6.40;;;2.10;;
56267;SDS011;42175;46.930;9.532;2023-02-27T03:27:08;3.85;;;1.70;;
56267;SDS011;42175;46.930;9.532;2023-02-27T03:32:09;3.90;;;2.35;;
56267;SDS011;42175;46.930;9.532;2023-02-27T03:34:47;3.40;;;1.88;;
56267;SDS011;42175;46.930;9.532;2023-02-27T03:42:45;3.75;;;1.90;;
56267;SDS011;42175;46.930;9.532;2023-02-27T03:48:03;6.03;;;1.80;;
56267;SDS011;42175;46.930;9.532;2023-02-27T03:50:31;3.85;;;2.03;;
56267;SDS011;42175;46.930;9.532;2023-02-27T03:52:57;2.10;;;1.50;;
56267;SDS011;42175;46.930;9.532;2023-02-27T03:55:25;3.58;;;1.70;;
56267;SDS011;42175;46.930;9.532;2023-02-27T03:57:56;3.53;;;2.10;;
56267;SDS011;42175;46.930;9.532;2023-02-27T04:00:23;3.22;;;1.70;;
56267;SDS011;42175;46.930;9.532;2023-02-27T04:02:50;2.55;;;1.80;;
56267;SDS011;42175;46.930;9.532;2023-02-27T04:05:18;2.42;;;1.65;;
56267;SDS011;42175;46.930;9.532;2023-02-27T04:13:32;5.22;;;2.10;;
56267;SDS011;42175;46.930;9.532;2023-02-27T04:16:38;2.67;;;1.80;;
56267;SDS011;42175;46.930;9.532;2023-02-27T04:24:57;2.83;;;1.90;;
56267;SDS011;42175;46.930;9.532;2023-02-27T04:36:08;1.80;;;1.25;;
56267;SDS011;42175;46.930;9.532;2023-02-27T04:38:43;2.92;;;1.60;;
56267;SDS011;42175;46.930;9.532;2023-02-27T04:41:37;3.38;;;1.58;;
56267;SDS011;42175;46.930;9.532;2023-02-27T04:44:09;2.47;;;1.80;;
56267;SDS011;42175;46.930;9.532;2023-02-27T04:46:38;2.33;;;1.63;;
56267;SDS011;42175;46.930;9.532;2023-02-27T04:54:42;3.90;;;1.90;;
56267;SDS011;42175;46.930;9.532;2023-02-27T04:57:18;3.10;;;2.00;;
56267;SDS011;42175;46.930;9.532;2023-02-27T04:59:49;2.83;;;1.75;;
56267;SDS011;42175;46.930;9.532;2023-02-27T05:02:23;2.80;;;1.60;;
56267;SDS011;42175;46.930;9.532;2023-02-27T05:04:56;2.75;;;1.80;;
56267;SDS011;42175;46.930;9.532;2023-02-27T05:07:29;2.90;;;1.67;;
56267;SDS011;42175;46.930;9.532;2023-02-27T05:10:20;4.57;;;1.70;;
56267;SDS011;42175;46.930;9.532;2023-02-27T05:13:02;3.83;;;1.58;;
56267;SDS011;42175;46.930;9.532;2023-02-27T05:15:37;3.92;;;1.42;;
56267;SDS011;42175;46.930;9.532;2023-02-27T05:18:24;3.13;;;1.70;;
56267;SDS011;42175;46.930;9.532;2023-02-27T05:24:19;3.25;;;1.63;;
56267;SDS011;42175;46.930;9.532;2023-02-27T05:29:57;4.18;;;1.63;;
56267;SDS011;42175;46.930;9.532;2023-02-27T05:40:07;2.70;;;1.50;;
56267;SDS011;42175;46.930;9.532;2023-02-27T05:42:45;3.38;;;1.90;;
56267;SDS011;42175;46.930;9.532;2023-02-27T05:45:16;3.10;;;1.45;;
56267;SDS011;42175;46.930;9.532;2023-02-27T05:47:51;2.35;;;1.60;;
56267;SDS011;42175;46.930;9.532;2023-02-27T05:50:25;2.78;;;1.80;;
56267;SDS011;42175;46.930;9.532;2023-02-27T05:52:54;2.58;;;1.77;;
56267;SDS011;42175;46.930;9.532;2023-02-27T05:55:29;2.53;;;1.70;;
56267;SDS011;42175;46.930;9.532;2023-02-27T06:00:42;4.03;;;1.65;;
56267;SDS011;42175;46.930;9.532;2023-02-27T06:03:11;2.00;;;1.70;;
56267;SDS011;42175;46.930;9.532;2023-02-27T06:05:38;2.42;;;1.50;;
56267;SDS011;42175;46.930;9.532;2023-02-27T06:08:06;2.78;;;1.70;;
56267;SDS011;42175;46.930;9.532;2023-02-27T06:10:32;3.47;;;1.42;;
56267;SDS011;42175;46.930;9.532;2023-02-27T06:12:58;4.10;;;1.85;;
56267;SDS011;42175;46.930;9.532;2023-02-27T06:15:23;2.47;;;1.70;;
56267;SDS011;42175;46.930;9.532;2023-02-27T06:17:49;2.97;;;1.60;;
56267;SDS011;42175;46.930;9.532;2023-02-27T06:20:15;2.88;;;1.52;;
56267;SDS011;42175;46.930;9.532;2023-02-27T06:22:40;3.85;;;1.70;;
56267;SDS011;42175;46.930;9.532;2023-02-27T06:25:06;3.20;;;1.65;;
56267;SDS011;42175;46.930;9.532;2023-02-27T06:27:32;2.28;;;1.45;;
56267;SDS011;42175;46.930;9.532;2023-02-27T06:29:58;2.15;;;1.35;;
56267;SDS011;42175;46.930;9.532;2023-02-27T06:32:24;3.45;;;1.77;;
56267;SDS011;42175;46.930;9.532;2023-02-27T06:34:50;5.57;;;2.00;;
56267;SDS011;42175;46.930;9.532;2023-02-27T06:37:17;3.40;;;1.50;;
56267;SDS011;42175;46.930;9.532;2023-02-27T06:39:42;4.15;;;1.95;;
56267;SDS011;42175;46.930;9.532;2023-02-27T06:42:08;2.97;;;1.60;;
56267;SDS011;42175;46.930;9.532;2023-02-27T06:44:34;8.43;;;1.77;;
56267;SDS011;42175;46.930;9.532;2023-02-27T06:46:59;2.08;;;1.33;;
56267;SDS011;42175;46.930;9.532;2023-02-27T06:49:25;12.30;;;1.65;;
56267;SDS011;42175;46.930;9.532;2023-02-27T06:51:51;22.65;;;2.63;;
56267;SDS011;42175;46.930;9.532;2023-02-27T06:54:16;6.82;;;3.03;;
56267;SDS011;42175;46.930;9.532;2023-02-27T06:56:42;10.45;;;4.18;;
56267;SDS011;42175;46.930;9.532;2023-02-27T06:59:07;11.95;;;3.30;;
56267;SDS011;42175;46.930;9.532;2023-02-27T07:01:33;17.67;;;3.30;;
56267;SDS011;42175;46.930;9.532;2023-02-27T07:03:59;16.02;;;3.63;;
56267;SDS011;42175;46.930;9.532;2023-02-27T07:06:25;25.08;;;4.53;;
56267;SDS011;42175;46.930;9.532;2023-02-27T07:08:51;17.50;;;3.30;;
56267;SDS011;42175;46.930;9.532;2023-02-27T07:11:17;23.50;;;4.18;;
56267;SDS011;42175;46.930;9.532;2023-02-27T07:13:43;15.60;;;4.30;;
56267;SDS011;42175;46.930;9.532;2023-02-27T07:16:09;12.13;;;3.92;;
56267;SDS011;42175;46.930;9.532;2023-02-27T07:18:34;12.82;;;3.45;;
56267;SDS011;42175;46.930;9.532;2023-02-27T07:21:00;15.75;;;4.57;;
56267;SDS011;42175;46.930;9.532;2023-02-27T07:23:25;16.27;;;4.20;;
56267;SDS011;42175;46.930;9.532;2023-02-27T07:25:51;14.65;;;3.53;;
56267;SDS011;42175;46.930;9.532;2023-02-27T07:28:17;12.88;;;4.55;;
56267;SDS011;42175;46.930;9.532;2023-02-27T07:30:43;15.40;;;3.95;;
56267;SDS011;42175;46.930;9.532;2023-02-27T07:33:09;7.97;;;3.58;;
56267;SDS011;42175;46.930;9.532;2023-02-27T07:35:35;11.68;;;3.90;;
56267;SDS011;42175;46.930;9.532;2023-02-27T07:38:02;15.07;;;3.95;;
56267;SDS011;42175;46.930;9.532;2023-02-27T07:40:28;11.10;;;3.33;;
56267;SDS011;42175;46.930;9.532;2023-02-27T07:42:53;7.90;;;3.58;;
56267;SDS011;42175;46.930;9.532;2023-02-27T07:45:19;10.23;;;4.18;;
56267;SDS011;42175;46.930;9.532;2023-02-27T07:47:46;14.77;;;3.47;;
56267;SDS011;42175;46.930;9.532;2023-02-27T07:50:12;9.30;;;3.33;;
56267;SDS011;42175;46.930;9.532;2023-02-27T07:52:40;10.10;;;3.47;;
56267;SDS011;42175;46.930;9.532;2023-02-27T07:55:07;10.07;;;3.60;;
56267;SDS011;42175;46.930;9.532;2023-02-27T07:57:34;8.52;;;3.08;;
56267;SDS011;42175;46.930;9.532;2023-02-27T08:00:01;8.82;;;3.78;;
56267;SDS011;42175;46.930;9.532;2023-02-27T08:02:31;8.70;;;3.50;;
56267;SDS011;42175;46.930;9.532;2023-02-27T08:04:57;10.82;;;4.13;;
56267;SDS011;42175;46.930;9.532;2023-02-27T08:07:23;7.50;;;3.70;;
56267;SDS011;42175;46.930;9.532;2023-02-27T08:09:49;8.45;;;3.40;;
56267;SDS011;42175;46.930;9.532;2023-02-27T08:12:15;7.97;;;2.95;;
56267;SDS011;42175;46.930;9.532;2023-02-27T08:14:41;7.20;;;3.20;;
56267;SDS011;42175;46.930;9.532;2023-02-27T08:17:07;6.75;;;3.25;;
56267;SDS011;42175;46.930;9.532;2023-02-27T08:19:32;5.70;;;3.55;;
56267;SDS011;42175;46.930;9.532;2023-02-27T08:21:59;6.43;;;3.22;;
56267;SDS011;42175;46.930;9.532;2023-02-27T08:24:24;6.47;;;3.30;;
56267;SDS011;42175;46.930;9.532;2023-02-27T08:26:50;6.57;;;3.08;;
56267;SDS011;42175;46.930;9.532;2023-02-27T08:29:16;6.82;;;2.83;;
56267;SDS011;42175;46.930;9.532;2023-02-27T08:31:42;8.23;;;3.80;;
56267;SDS011;42175;46.930;9.532;2023-02-27T08:34:08;5.05;;;2.70;;
56267;SDS011;42175;46.930;9.532;2023-02-27T08:36:33;10.60;;;3.78;;
56267;SDS011;42175;46.930;9.532;2023-02-27T08:38:59;5.80;;;3.22;;
56267;SDS011;42175;46.930;9.532;2023-02-27T08:41:25;6.13;;;2.92;;
56267;SDS011;42175;46.930;9.532;2023-02-27T08:43:50;6.13;;;3.25;;
56267;SDS011;42175;46.930;9.532;2023-02-27T08:46:16;9.43;;;3.45;;
56267;SDS011;42175;46.930;9.532;2023-02-27T08:48:42;4.78;;;2.92;;
56267;SDS011;42175;46.930;9.532;2023-02-27T08:51:08;6.40;;;3.08;;
56267;SDS011;42175;46.930;9.532;2023-02-27T08:53:35;5.93;;;2.97;;
56267;SDS011;42175;46.930;9.532;2023-02-27T08:56:01;7.28;;;3.80;;
56267;SDS011;42175;46.930;9.532;2023-02-27T08:58:27;6.85;;;3.40;;
56267;SDS011;42175;46.930;9.532;2023-02-27T09:00:52;5.40;;;3.03;;
56267;SDS011;42175;46.930;9.532;2023-02-27T09:03:19;4.45;;;2.83;;
56267;SDS011;42175;46.930;9.532;2023-02-27T09:05:46;7.28;;;3.08;;
56267;SDS011;42175;46.930;9.532;2023-02-27T09:08:13;9.32;;;3.10;;
56267;SDS011;42175;46.930;9.532;2023-02-27T09:10:39;10.18;;;3.40;;
56267;SDS011;42175;46.930;9.532;2023-02-27T09:13:06;10.88;;;3.90;;
56267;SDS011;42175;46.930;9.532;2023-02-27T09:15:31;15.23;;;9.32;;
56267;SDS011;42175;46.930;9.532;2023-02-27T09:18:00;21.40;;;14.10;;
56267;SDS011;42175;46.930;9.532;2023-02-27T09:20:28;36.75;;;13.15;;
56267;SDS011;42175;46.930;9.532;2023-02-27T09:22:55;46.45;;;11.57;;
56267;SDS011;42175;46.930;9.532;2023-02-27T09:25:22;40.92;;;10.75;;
56267;SDS011;42175;46.930;9.532;2023-02-27T09:27:48;56.25;;;13.65;;
56267;SDS011;42175;46.930;9.532;2023-02-27T09:30:14;52.05;;;13.57;;
56267;SDS011;42175;46.930;9.532;2023-02-27T09:32:40;51.05;;;12.35;;
56267;SDS011;42175;46.930;9.532;2023-02-27T09:35:05;59.22;;;12.93;;
56267;SDS011;42175;46.930;9.532;2023-02-27T09:37:33;62.08;;;14.02;;
56267;SDS011;42175;46.930;9.532;2023-02-27T09:39:59;59.47;;;11.80;;
56267;SDS011;42175;46.930;9.532;2023-02-27T09:42:26;55.65;;;13.35;;
56267;SDS011;42175;46.930;9.532;2023-02-27T09:45:01;47.00;;;10.93;;
56267;SDS011;42175;46.930;9.532;2023-02-27T09:47:39;46.35;;;10.20;;
56267;SDS011;42175;46.930;9.532;2023-02-27T09:53:25;55.88;;;11.45;;
56267;SDS011;42175;46.930;9.532;2023-02-27T09:56:07;46.92;;;9.02;;
56267;SDS011;42175;46.930;9.532;2023-02-27T10:01:21;39.28;;;9.40;;
56267;SDS011;42175;46.930;9.532;2023-02-27T10:04:01;43.42;;;9.00;;
56267;SDS011;42175;46.930;9.532;2023-02-27T10:14:52;35.45;;;8.32;;
56267;SDS011;42175;46.930;9.532;2023-02-27T10:17:28;28.33;;;7.38;;
56267;SDS011;42175;46.930;9.532;2023-02-27T10:19:56;27.05;;;7.95;;
56267;SDS011;42175;46.930;9.532;2023-02-27T10:22:28;31.88;;;7.03;;
56267;SDS011;42175;46.930;9.532;2023-02-27T10:25:03;31.02;;;6.47;;
56267;SDS011;42175;46.930;9.532;2023-02-27T10:27:32;27.57;;;7.47;;
56267;SDS011;42175;46.930;9.532;2023-02-27T10:30:07;23.70;;;6.88;;
56267;SDS011;42175;46.930;9.532;2023-02-27T10:32:51;25.27;;;7.32;;
56267;SDS011;42175;46.930;9.532;2023-02-27T10:35:33;23.58;;;5.03;;
56267;SDS011;42175;46.930;9.532;2023-02-27T10:38:02;25.67;;;6.15;;
56267;SDS011;42175;46.930;9.532;2023-02-27T10:40:53;17.08;;;5.15;;
56267;SDS011;42175;46.930;9.532;2023-02-27T10:43:21;27.00;;;6.07;;
56267;SDS011;42175;46.930;9.532;2023-02-27T10:45:47;20.90;;;5.45;;
56267;SDS011;42175;46.930;9.532;2023-02-27T10:48:13;26.52;;;6.57;;
56267;SDS011;42175;46.930;9.532;2023-02-27T10:50:41;22.10;;;4.82;;
56267;SDS011;42175;46.930;9.532;2023-02-27T10:53:16;18.75;;;5.00;;
56267;SDS011;42175;46.930;9.532;2023-02-27T10:56:02;22.98;;;5.18;;
56267;SDS011;42175;46.930;9.532;2023-02-27T10:58:31;23.55;;;5.43;;
56267;SDS011;42175;46.930;9.532;2023-02-27T11:01:01;15.85;;;4.63;;
56267;SDS011;42175;46.930;9.532;2023-02-27T11:03:33;20.02;;;5.18;;
56267;SDS011;42175;46.930;9.532;2023-02-27T11:06:07;14.30;;;4.57;;
56267;SDS011;42175;46.930;9.532;2023-02-27T11:08:44;20.95;;;4.65;;
56267;SDS011;42175;46.930;9.532;2023-02-27T11:12:09;14.65;;;4.68;;
56267;SDS011;42175;46.930;9.532;2023-02-27T11:14:37;14.65;;;3.95;;
56267;SDS011;42175;46.930;9.532;2023-02-27T11:17:31;15.80;;;4.60;;
56267;SDS011;42175;46.930;9.532;2023-02-27T11:20:00;16.17;;;4.00;;
56267;SDS011;42175;46.930;9.532;2023-02-27T11:22:30;20.95;;;3.88;;
56267;SDS011;42175;46.930;9.532;2023-02-27T11:25:30;15.38;;;4.82;;
56267;SDS011;42175;46.930;9.532;2023-02-27T11:27:49;17.80;;;5.00;;
56267;SDS011;42175;46.930;9.532;2023-02-27T11:30:26;18.10;;;4.55;;
56267;SDS011;42175;46.930;9.532;2023-02-27T11:32:56;16.15;;;4.20;;
56267;SDS011;42175;46.930;9.532;2023-02-27T11:35:29;11.02;;;3.88;;
56267;SDS011;42175;46.930;9.532;2023-02-27T11:38:07;15.55;;;4.00;;
56267;SDS011;42175;46.930;9.532;2023-02-27T11:40:50;12.88;;;4.35;;
56267;SDS011;42175;46.930;9.532;2023-02-27T11:45:53;13.60;;;3.47;;
56267;SDS011;42175;46.930;9.532;2023-02-27T11:50:57;14.02;;;3.60;;
56267;SDS011;42175;46.930;9.532;2023-02-27T11:56:28;15.75;;;3.88;;
56267;SDS011;42175;46.930;9.532;2023-02-27T11:59:08;11.95;;;3.40;;
56267;SDS011;42175;46.930;9.532;2023-02-27T12:02:00;14.52;;;3.90;;
56267;SDS011;42175;46.930;9.532;2023-02-27T12:04:47;10.50;;;3.25;;
56267;SDS011;42175;46.930;9.532;2023-02-27T12:07:25;9.27;;;3.87;;
56267;SDS011;42175;46.930;9.532;2023-02-27T12:12:56;7.50;;;3.08;;
56267;SDS011;42175;46.930;9.532;2023-02-27T12:20:42;9.32;;;2.85;;
56267;SDS011;42175;46.930;9.532;2023-02-27T12:31:48;8.07;;;2.85;;
56267;SDS011;42175;46.930;9.532;2023-02-27T12:37:21;5.13;;;2.60;;
56267;SDS011;42175;46.930;9.532;2023-02-27T12:39:49;7.50;;;2.72;;
56267;SDS011;42175;46.930;9.532;2023-02-27T12:42:21;7.78;;;2.70;;
56267;SDS011;42175;46.930;9.532;2023-02-27T12:50:10;4.82;;;2.50;;
56267;SDS011;42175;46.930;9.532;2023-02-27T12:52:44;5.95;;;2.75;;
56267;SDS011;42175;46.930;9.532;2023-02-27T12:55:30;6.32;;;2.58;;
56267;SDS011;42175;46.930;9.532;2023-02-27T13:00:41;5.65;;;3.10;;
56267;SDS011;42175;46.930;9.532;2023-02-27T13:11:49;6.23;;;2.50;;
56267;SDS011;42175;46.930;9.532;2023-02-27T13:17:46;7.28;;;2.92;;
56267;SDS011;42175;46.930;9.532;2023-02-27T13:25:37;5.88;;;2.20;;
56267;SDS011;42175;46.930;9.532;2023-02-27T13:28:06;6.13;;;2.60;;
56267;SDS011;42175;46.930;9.532;2023-02-27T13:30:40;5.10;;;2.70;;
56267;SDS011;42175;46.930;9.532;2023-02-27T13:33:54;6.15;;;2.42;;
56267;SDS011;42175;46.930;9.532;2023-02-27T13:36:23;8.05;;;2.10;;
56267;SDS011;42175;46.930;9.532;2023-02-27T13:39:03;4.95;;;2.03;;
56267;SDS011;42175;46.930;9.532;2023-02-27T13:41:49;3.70;;;2.00;;
56267;SDS011;42175;46.930;9.532;2023-02-27T13:44:36;3.08;;;2.33;;
56267;SDS011;42175;46.930;9.532;2023-02-27T13:49:54;8.02;;;2.20;;
56267;SDS011;42175;46.930;9.532;2023-02-27T13:52:33;5.60;;;2.13;;
56267;SDS011;42175;46.930;9.532;2023-02-27T13:55:02;6.97;;;2.42;;
56267;SDS011;42175;46.930;9.532;2023-02-27T13:57:48;5.80;;;2.25;;
56267;SDS011;42175;46.930;9.532;2023-02-27T14:00:21;4.28;;;2.30;;
56267;SDS011;42175;46.930;9.532;2023-02-27T14:02:50;5.82;;;2.00;;
56267;SDS011;42175;46.930;9.532;2023-02-27T14:05:27;4.90;;;2.15;;
56267;SDS011;42175;46.930;9.532;2023-02-27T14:10:53;4.93;;;1.85;;
56267;SDS011;42175;46.930;9.532;2023-02-27T14:19:02;3.65;;;2.17;;
56267;SDS011;42175;46.930;9.532;2023-02-27T14:21:52;3.03;;;1.77;;
56267;SDS011;42175;46.930;9.532;2023-02-27T14:24:26;4.93;;;2.10;;
56267;SDS011;42175;46.930;9.532;2023-02-27T14:26:54;6.20;;;2.08;;
56267;SDS011;42175;46.930;9.532;2023-02-27T14:29:23;4.70;;;1.95;;
56267;SDS011;42175;46.930;9.532;2023-02-27T14:31:58;7.25;;;2.22;;
56267;SDS011;42175;46.930;9.532;2023-02-27T14:34:27;7.05;;;1.90;;
56267;SDS011;42175;46.930;9.532;2023-02-27T14:36:56;5.18;;;2.05;;
56267;SDS011;42175;46.930;9.532;2023-02-27T14:39:26;9.00;;;2.08;;
56267;SDS011;42175;46.930;9.532;2023-02-27T14:44:54;6.88;;;2.42;;
56267;SDS011;42175;46.930;9.532;2023-02-27T14:49:52;4.35;;;1.90;;
56267;SDS011;42175;46.930;9.532;2023-02-27T14:52:27;5.80;;;2.00;;
56267;SDS011;42175;46.930;9.532;2023-02-27T14:57:51;6.35;;;2.30;;
56267;SDS011;42175;46.930;9.532;2023-02-27T15:00:32;9.98;;;2.10;;
56267;SDS011;42175;46.930;9.532;2023-02-27T15:03:22;8.93;;;2.35;;
56267;SDS011;42175;46.930;9.532;2023-02-27T15:05:51;6.78;;;2.75;;
56267;SDS011;42175;46.930;9.532;2023-02-27T15:08:23;12.15;;;4.47;;
56267;SDS011;42175;46.930;9.532;2023-02-27T15:10:52;7.53;;;4.20;;
56267;SDS011;42175;46.930;9.532;2023-02-27T15:13:23;19.08;;;4.30;;
56267;SDS011;42175;46.930;9.532;2023-02-27T15:18:52;11.60;;;4.75;;
56267;SDS011;42175;46.930;9.532;2023-02-27T15:21:40;11.05;;;4.85;;
56267;SDS011;42175;46.930;9.532;2023-02-27T15:24:17;9.68;;;4.60;;
56267;SDS011;42175;46.930;9.532;2023-02-27T15:27:05;13.38;;;5.20;;
56267;SDS011;42175;46.930;9.532;2023-02-27T15:32:06;12.50;;;5.40;;
56267;SDS011;42175;46.930;9.532;2023-02-27T15:34:40;14.45;;;4.95;;
56267;SDS011;42175;46.930;9.532;2023-02-27T15:37:11;12.90;;;4.68;;
56267;SDS011;42175;46.930;9.532;2023-02-27T15:39:51;12.70;;;4.82;;
56267;SDS011;42175;46.930;9.532;2023-02-27T15:42:19;13.82;;;5.28;;
56267;SDS011;42175;46.930;9.532;2023-02-27T15:44:49;10.82;;;4.97;;
56267;SDS011;42175;46.930;9.532;2023-02-27T15:47:27;12.80;;;5.20;;
56267;SDS011;42175;46.930;9.532;2023-02-27T15:49:59;13.00;;;4.95;;
56267;SDS011;42175;46.930;9.532;2023-02-27T15:52:25;10.98;;;5.07;;
56267;SDS011;42175;46.930;9.532;2023-02-27T15:55:00;16.08;;;6.35;;
56267;SDS011;42175;46.930;9.532;2023-02-27T15:57:29;16.27;;;6.15;;
56267;SDS011;42175;46.930;9.532;2023-02-27T15:59:56;20.92;;;7.30;;
56267;SDS011;42175;46.930;9.532;2023-02-27T16:02:25;22.05;;;9.90;;
56267;SDS011;42175;46.930;9.532;2023-02-27T16:05:01;30.77;;;11.43;;
56267;SDS011;42175;46.930;9.532;2023-02-27T16:07:27;29.25;;;11.23;;
56267;SDS011;42175;46.930;9.532;2023-02-27T16:10:02;24.48;;;10.50;;
56267;SDS011;42175;46.930;9.532;2023-02-27T16:12:35;25.00;;;11.05;;
56267;SDS011;42175;46.930;9.532;2023-02-27T16:15:19;30.90;;;12.05;;
56267;SDS011;42175;46.930;9.532;2023-02-27T16:23:00;32.50;;;12.05;;
56267;SDS011;42175;46.930;9.532;2023-02-27T16:26:02;24.98;;;10.68;;
56267;SDS011;42175;46.930;9.532;2023-02-27T16:28:49;32.20;;;10.95;;
56267;SDS011;42175;46.930;9.532;2023-02-27T16:34:00;24.20;;;9.77;;
56267;SDS011;42175;46.930;9.532;2023-02-27T16:36:58;26.30;;;11.55;;
56267;SDS011;42175;46.930;9.532;2023-02-27T16:39:26;10.23;;;5.97;;
56267;SDS011;42175;46.930;9.532;2023-02-27T16:41:53;13.02;;;6.05;;
56267;SDS011;42175;46.930;9.532;2023-02-27T16:44:19;11.85;;;5.75;;
56267;SDS011;42175;46.930;9.532;2023-02-27T16:46:47;15.38;;;6.43;;
56267;SDS011;42175;46.930;9.532;2023-02-27T16:49:23;13.77;;;6.90;;
56267;SDS011;42175;46.930;9.532;2023-02-27T16:51:51;17.58;;;7.93;;
56267;SDS011;42175;46.930;9.532;2023-02-27T16:54:17;17.48;;;7.65;;
56267;SDS011;42175;46.930;9.532;2023-02-27T16:56:44;17.35;;;8.65;;
56267;SDS011;42175;46.930;9.532;2023-02-27T17:01:55;26.90;;;8.65;;
56267;SDS011;42175;46.930;9.532;2023-02-27T17:04:22;25.05;;;7.47;;
56267;SDS011;42175;46.930;9.532;2023-02-27T17:06:50;20.38;;;7.53;;
56267;SDS011;42175;46.930;9.532;2023-02-27T17:09:16;22.27;;;8.35;;
56267;SDS011;42175;46.930;9.532;2023-02-27T17:11:42;14.20;;;7.32;;
56267;SDS011;42175;46.930;9.532;2023-02-27T17:14:07;17.52;;;7.63;;
56267;SDS011;42175;46.930;9.532;2023-02-27T17:16:33;17.42;;;6.57;;
56267;SDS011;42175;46.930;9.532;2023-02-27T17:18:59;13.40;;;6.75;;
56267;SDS011;42175;46.930;9.532;2023-02-27T17:21:24;20.83;;;7.20;;
56267;SDS011;42175;46.930;9.532;2023-02-27T17:23:51;14.20;;;7.05;;
56267;SDS011;42175;46.930;9.532;2023-02-27T17:26:17;14.98;;;7.07;;
56267;SDS011;42175;46.930;9.532;2023-02-27T17:28:43;13.98;;;7.78;;
56267;SDS011;42175;46.930;9.532;2023-02-27T17:31:09;13.20;;;7.35;;
56267;SDS011;42175;46.930;9.532;2023-02-27T17:33:37;11.73;;;6.30;;
56267;SDS011;42175;46.930;9.532;2023-02-27T17:36:03;16.40;;;7.15;;
56267;SDS011;42175;46.930;9.532;2023-02-27T17:38:30;15.57;;;6.43;;
56267;SDS011;42175;46.930;9.532;2023-02-27T17:40:57;13.90;;;6.25;;
56267;SDS011;42175;46.930;9.532;2023-02-27T17:43:23;13.80;;;6.45;;
56267;SDS011;42175;46.930;9.532;2023-02-27T17:45:49;14.95;;;6.55;;
56267;SDS011;42175;46.930;9.532;2023-02-27T17:48:14;11.57;;;5.78;;
56267;SDS011;42175;46.930;9.532;2023-02-27T17:50:40;15.43;;;5.57;;
56267;SDS011;42175;46.930;9.532;2023-02-27T17:53:06;15.15;;;6.20;;
56267;SDS011;42175;46.930;9.532;2023-02-27T17:55:34;14.05;;;6.18;;
56267;SDS011;42175;46.930;9.532;2023-02-27T17:57:59;12.95;;;6.00;;
56267;SDS011;42175;46.930;9.532;2023-02-27T18:00:25;11.80;;;5.25;;
56267;SDS011;42175;46.930;9.532;2023-02-27T18:02:51;12.82;;;6.10;;
56267;SDS011;42175;46.930;9.532;2023-02-27T18:05:16;13.35;;;5.82;;
56267;SDS011;42175;46.930;9.532;2023-02-27T18:07:42;12.43;;;6.43;;
56267;SDS011;42175;46.930;9.532;2023-02-27T18:10:08;11.57;;;5.22;;
56267;SDS011;42175;46.930;9.532;2023-02-27T18:12:35;12.00;;;5.95;;
56267;SDS011;42175;46.930;9.532;2023-02-27T18:15:02;7.95;;;4.97;;